Neptune Aegli — 9HEX7 — position and weather

sailwx.info

Track history (hours):
 
Tides and Currents Weather Stations Pressure Air Temp Water Temp Dewpoint Dewpoint Depression Visibility Wind Speed Wind Dir Waves Ship Positions

Neptune Aegli

Last reported at 2018-Feb-21 07:00 UTC. Time now 2018-Feb-21 07:30 UTC.
Position N 49°28' E 000°12'.

Length 158 m; draft 5.7 m.

Type: Cargo ship. MMSI: 215170000.

Date/timePositionNaut miles runAvg speedWind from/ knotsBaromVisibWave heightAir tempDewpointWater temp
2018-Feb-21 07:00N 49°28' E 000°12'0 0.0
2018-Feb-21 06:30N 49°28' E 000°12'0 0.0
2018-Feb-21 06:00N 49°28' E 000°12'0 0.2
2018-Feb-21 05:30N 49°28' E 000°12'1 1.9
2018-Feb-21 05:00N 49°29' E 000°10'0 0.5
2018-Feb-21 04:30N 49°28' E 000°10'3 6.8
2018-Feb-21 04:00N 49°29' E 000°05'714.8
2018-Feb-21 03:30N 49°31' W 000°06'714.3
2018-Feb-21 03:00N 49°33' W 000°17'714.9
2018-Feb-21 02:30N 49°36' W 000°27'815.4
2018-Feb-21 02:00N 49°39' W 000°38'815.6
2018-Feb-21 01:30N 49°42' W 000°49'815.2
2018-Feb-21 01:01N 49°45' W 001°00'918.5
2018-Feb-21 00:30N 49°48' W 001°13'1020.9
2018-Feb-21 00:00N 49°52' W 001°29'1121.3
2018-Feb-20 23:30N 49°53' W 001°45'1122.1
2018-Feb-20 23:01N 49°53' W 002°02'1621.3
2018-Feb-20 22:14N 49°52' W 002°27'12918.7
2018-Feb-20 15:21N 48°51' W 005°22'2415.9
2018-Feb-20 13:50N 48°31' W 005°42'616.9
2018-Feb-20 13:27N 48°25' W 005°40'816.7
2018-Feb-20 13:00N 48°17' W 005°37'816.5
2018-Feb-20 12:30N 48°09' W 005°34'816.5
2018-Feb-20 12:00N 48°01' W 005°31'816.4
2018-Feb-20 11:30N 47°54' W 005°28'916.4
2018-Feb-20 10:59N 47°45' W 005°25'1116.6
2018-Feb-20 10:20N 47°35' W 005°21'24117.5
2018-Feb-19 20:32N 43°42' W 003°50'417.7
2018-Feb-19 20:19N 43°38' W 003°48'517.7
2018-Feb-19 20:00N 43°33' W 003°46'2 0.3
2018-Feb-19 12:31N 43°31' W 003°44'1 7.6
2018-Feb-19 12:25N 43°32' W 003°43'2 3.3
2018-Feb-19 11:44N 43°31' W 003°40'1 3.0
2018-Feb-19 11:15N 43°32' W 003°42'1 4.8
2018-Feb-19 11:00N 43°31' W 003°41'5 9.2
2018-Feb-19 10:31N 43°33' W 003°47'6 9.5
2018-Feb-19 09:50N 43°39' W 003°49'24412.3
2018-Feb-18 13:56N 47°33' W 005°32'917.3
2018-Feb-18 13:26N 47°41' W 005°36'717.3
2018-Feb-18 13:00N 47°48' W 005°39'917.7
2018-Feb-18 12:30N 47°57' W 005°43'1418.3
2018-Feb-18 11:43N 48°10' W 005°50'22514.9
2018-Feb-17 20:40N 51°54' W 006°14'213.4
2018-Feb-17 20:30N 51°57' W 006°15'713.5
2018-Feb-17 20:00N 52°03' W 006°16'713.6
2018-Feb-17 19:30N 52°10' W 006°16'611.5
2018-Feb-17 19:00N 52°16' W 006°19'1 1.6
2018-Feb-17 18:29N 52°15' W 006°20'0 0.0
2018-Feb-17 17:59N 52°15' W 006°20'0 0.0
2018-Feb-17 17:29N 52°15' W 006°20'0 0.0
2018-Feb-17 16:56N 52°15' W 006°20'0 0.0
2018-Feb-17 16:29N 52°15' W 006°20'0 0.0
2018-Feb-17 15:59N 52°15' W 006°20'0 0.0
2018-Feb-17 15:29N 52°15' W 006°20'0 0.5
2018-Feb-17 15:00N 52°16' W 006°20'1 2.0
2018-Feb-17 14:30N 52°15' W 006°19'4 8.5
2018-Feb-17 14:00N 52°12' W 006°16'917.1
2018-Feb-17 13:30N 52°03' W 006°15'918.1
2018-Feb-17 13:00N 51°54' W 006°10'2915.7
2018-Feb-17 11:11N 51°36' W 005°35'319.0
2018-Feb-17 11:00N 51°35' W 005°30'1019.3
2018-Feb-17 10:30N 51°33' W 005°15'1020.2
2018-Feb-17 10:00N 51°30' W 004°59'1120.1
2018-Feb-17 09:29N 51°28' W 004°42'3419.5
2018-Feb-17 07:46N 51°22' W 003°49'518.3
2018-Feb-17 07:30N 51°22' W 003°42'1517.0
2018-Feb-17 06:37N 51°21' W 003°18'216.2
2018-Feb-17 06:30N 51°21' W 003°15'712.6
2018-Feb-17 05:59N 51°23' W 003°05'714.6
2018-Feb-17 05:31N 51°27' W 002°56'815.0
2018-Feb-17 05:00N 51°30' W 002°45'1 1.6
2018-Feb-17 04:30N 51°30' W 002°43'0 0.7
2018-Feb-17 03:59N 51°30' W 002°43'0 0.0
2018-Feb-17 03:29N 51°30' W 002°43'0 0.0
2018-Feb-17 02:59N 51°30' W 002°43'0 0.0
2018-Feb-17 02:29N 51°30' W 002°43'0 0.0
2018-Feb-17 01:59N 51°30' W 002°43'0 0.0
2018-Feb-17 01:29N 51°30' W 002°43'0 0.0
2018-Feb-17 00:59N 51°30' W 002°43'0 0.0
2018-Feb-17 00:29N 51°30' W 002°43'0 0.0
2018-Feb-16 23:59N 51°30' W 002°43'0 0.0
2018-Feb-16 23:29N 51°30' W 002°43'0 0.0
2018-Feb-16 22:59N 51°30' W 002°43'0 0.0
2018-Feb-16 22:29N 51°30' W 002°43'0 0.0
2018-Feb-16 21:59N 51°30' W 002°43'0 0.0
2018-Feb-16 21:29N 51°30' W 002°43'0 0.0
2018-Feb-16 20:59N 51°30' W 002°43'0 0.0
2018-Feb-16 20:29N 51°30' W 002°43'0 0.0
2018-Feb-16 19:59N 51°30' W 002°43'0 0.0
2018-Feb-16 19:29N 51°30' W 002°43'0 0.0
2018-Feb-16 18:59N 51°30' W 002°43'0 0.0
2018-Feb-16 18:29N 51°30' W 002°43'0 0.0
2018-Feb-16 18:00N 51°30' W 002°43'0 0.7
2018-Feb-16 17:29N 51°30' W 002°43'0 0.4
2018-Feb-16 17:00N 51°30' W 002°44'1 1.9
2018-Feb-16 16:30N 51°30' W 002°45'713.5
2018-Feb-16 16:01N 51°28' W 002°55'713.3
2018-Feb-16 15:30N 51°24' W 003°04'41 8.1
2018-Feb-16 10:23N 51°17' W 004°09'4 7.3
2018-Feb-16 09:54N 51°16' W 004°15'3 7.4
2018-Feb-16 09:30N 51°15' W 004°19'4 7.2
2018-Feb-16 09:00N 51°12' W 004°23'4 7.8
2018-Feb-16 08:30N 51°10' W 004°28'4 8.5
2018-Feb-16 08:00N 51°07' W 004°33'4 9.0
2018-Feb-16 07:30N 51°04' W 004°38'5 9.5
2018-Feb-16 07:00N 51°00' W 004°43'510.0
2018-Feb-16 06:30N 50°57' W 004°49'612.3
2018-Feb-16 06:01N 50°53' W 004°56'714.8
2018-Feb-16 05:30N 50°48' W 005°05'715.0
2018-Feb-16 05:01N 50°43' W 005°14'715.0
2018-Feb-16 04:31N 50°38' W 005°22'714.7
2018-Feb-16 04:01N 50°33' W 005°31'714.8
2018-Feb-16 03:30N 50°28' W 005°40'714.7
2018-Feb-16 03:00N 50°23' W 005°48'2810.0
2018-Feb-16 00:12N 49°58' W 005°30'1413.4
2018-Feb-15 23:11N 49°56' W 005°09'513.8
2018-Feb-15 22:50N 49°57' W 005°02'513.6
2018-Feb-15 22:30N 49°59' W 004°55'713.4
2018-Feb-15 22:00N 50°00' W 004°45'713.1
2018-Feb-15 21:29N 50°02' W 004°35'712.9
2018-Feb-15 20:58N 50°04' W 004°25'612.7
2018-Feb-15 20:28N 50°05' W 004°15'612.3
2018-Feb-15 20:00N 50°07' W 004°07'711.9
2018-Feb-15 19:27N 50°08' W 003°56'611.9
2018-Feb-15 18:58N 50°09' W 003°48'511.2
2018-Feb-15 18:30N 50°11' W 003°40'611.2
2018-Feb-15 18:00N 50°12' W 003°32'611.7
2018-Feb-15 17:30N 50°14' W 003°23'611.9
2018-Feb-15 17:00N 50°16' W 003°14'612.3
2018-Feb-15 16:30N 50°18' W 003°05'712.9
2018-Feb-15 16:00N 50°20' W 002°55'713.6
2018-Feb-15 15:30N 50°22' W 002°45'714.3
2018-Feb-15 15:00N 50°24' W 002°35'815.6
2018-Feb-15 14:30N 50°27' W 002°23'1316.3
2018-Feb-15 13:44N 50°31' W 002°04'416.7
2018-Feb-15 13:30N 50°32' W 001°59'816.0
2018-Feb-15 13:00N 50°35' W 001°47'714.9
2018-Feb-15 12:30N 50°39' W 001°37'816.6
2018-Feb-15 12:00N 50°44' W 001°27'713.3
2018-Feb-15 11:30N 50°48' W 001°18'510.9
2018-Feb-15 11:00N 50°52' W 001°23'3 5.3
2018-Feb-15 10:30N 50°54' W 001°26'0 0.4
2018-Feb-15 09:57N 50°54' W 001°26'0 0.0
2018-Feb-15 09:26N 50°54' W 001°26'0 0.0
2018-Feb-15 09:00N 50°54' W 001°26'0 0.0
2018-Feb-15 08:30N 50°54' W 001°26'0 0.0
2018-Feb-15 08:00N 50°54' W 001°26'0 0.0
2018-Feb-15 07:27N 50°54' W 001°26'0 0.0
2018-Feb-15 07:00N 50°54' W 001°26'0 0.0
2018-Feb-15 06:18N 50°54' W 001°26'0 0.0
2018-Feb-15 05:57N 50°54' W 001°26'0 0.0
2018-Feb-15 05:30N 50°54' W 001°26'0 0.0
2018-Feb-15 05:00N 50°54' W 001°26'0 0.0
2018-Feb-15 04:30N 50°54' W 001°26'0 0.0
2018-Feb-15 03:48N 50°54' W 001°26'0 0.0
2018-Feb-15 03:18N 50°54' W 001°26'0 0.0
2018-Feb-15 03:00N 50°54' W 001°26'0 0.0
2018-Feb-15 02:24N 50°54' W 001°26'0 0.0
2018-Feb-15 01:51N 50°54' W 001°26'0 0.0
2018-Feb-15 01:24N 50°54' W 001°26'0 0.0
2018-Feb-15 00:51N 50°54' W 001°26'0 0.0
2018-Feb-15 00:24N 50°54' W 001°26'0 0.0
2018-Feb-14 23:54N 50°54' W 001°26'0 0.0
2018-Feb-14 23:27N 50°54' W 001°26'1 1.3
2018-Feb-14 23:00N 50°54' W 001°25'5 9.9
2018-Feb-14 22:30N 50°50' W 001°19'4 8.5
2018-Feb-14 22:00N 50°46' W 001°17'611.8
2018-Feb-14 21:31N 50°46' W 001°07'815.9
2018-Feb-14 21:00N 50°39' W 000°60'611.6
2018-Feb-14 20:31N 50°34' W 000°55'3614.7
2018-Feb-14 18:04N 50°03' W 000°27'114.3
2018-Feb-14 18:00N 50°02' W 000°26'714.3
2018-Feb-14 17:29N 49°56' W 000°20'714.2
2018-Feb-14 17:00N 49°50' W 000°16'714.3
2018-Feb-14 16:30N 49°44' W 000°10'714.5
2018-Feb-14 16:00N 49°37' W 000°05'714.8
2018-Feb-14 15:31N 49°31' E 000°01'510.7
2018-Feb-14 15:00N 49°28' E 000°08'2 3.1
2018-Feb-14 14:29N 49°29' E 000°10'0 0.0
2018-Feb-14 13:59N 49°29' E 000°10'1 1.9
2018-Feb-14 13:27N 49°28' E 000°12'0 0.0
2018-Feb-14 12:57N 49°28' E 000°12'0 0.0
2018-Feb-14 12:28N 49°28' E 000°12'0 0.0
2018-Feb-14 11:57N 49°28' E 000°12'0 0.0
2018-Feb-14 11:28N 49°28' E 000°12'0 0.0
2018-Feb-14 10:55N 49°28' E 000°12'0 0.0
2018-Feb-14 10:28N 49°28' E 000°12'0 0.0
2018-Feb-14 09:57N 49°28' E 000°12'0 0.0
2018-Feb-14 09:28N 49°28' E 000°12'0 0.0
2018-Feb-14 08:57N 49°28' E 000°12'0 0.0
2018-Feb-14 08:27N 49°28' E 000°12'0 0.0
2018-Feb-14 07:57N 49°28' E 000°12'0 0.0
2018-Feb-14 07:28N 49°28' E 000°12'0 0.0
2018-Feb-14 06:58N 49°28' E 000°12'0 0.0
2018-Feb-14 06:28N 49°28' E 000°12'0 0.0
2018-Feb-14 05:57N 49°28' E 000°12'0 0.0
2018-Feb-14 05:28N 49°28' E 000°12'0 0.0
2018-Feb-14 04:58N 49°28' E 000°12'0 0.0
2018-Feb-14 04:27N 49°28' E 000°12'0 0.0
2018-Feb-14 03:57N 49°28' E 000°12'1 1.3
2018-Feb-14 03:30N 49°29' E 000°11'0 0.9
2018-Feb-14 03:00N 49°29' E 000°10'0 0.0
2018-Feb-14 02:30N 49°29' E 000°10'3 5.5
2018-Feb-14 02:00N 49°29' E 000°06'815.9
2018-Feb-14 01:30N 49°31' W 000°06'612.0
2018-Feb-14 01:00N 49°33' W 000°14'714.1
2018-Feb-14 00:30N 49°36' W 000°24'713.1
2018-Feb-14 00:00N 49°38' W 000°34'713.1
2018-Feb-13 23:30N 49°40' W 000°43'612.9
2018-Feb-13 23:00N 49°43' W 000°53'612.9
2018-Feb-13 22:30N 49°45' W 001°02'713.5
2018-Feb-13 22:01N 49°48' W 001°11'714.1
2018-Feb-13 21:30N 49°50' W 001°22'714.8
2018-Feb-13 21:00N 49°52' W 001°33'815.6
2018-Feb-13 20:31N 49°53' W 001°45'816.2
2018-Feb-13 20:00N 49°54' W 001°57'816.5
2018-Feb-13 19:30N 49°54' W 002°10'14314.4
2018-Feb-13 09:35N 48°49' W 005°26'615.5
2018-Feb-13 09:13N 48°46' W 005°33'516.2
2018-Feb-13 08:56N 48°42' W 005°37'1614.9
2018-Feb-13 07:51N 48°26' W 005°41'614.9
2018-Feb-13 07:26N 48°20' W 005°38'714.6
2018-Feb-13 06:59N 48°14' W 005°36'714.7
2018-Feb-13 06:30N 48°07' W 005°33'715.0
2018-Feb-13 06:00N 47°60' W 005°30'815.3
2018-Feb-13 05:28N 47°52' W 005°26'815.3
2018-Feb-13 04:58N 47°45' W 005°23'25517.2
2018-Feb-12 14:10N 43°38' W 003°49'316.4
2018-Feb-12 14:00N 43°36' W 003°47'8 0.9
2018-Feb-12 05:06N 43°28' W 003°46'5 9.6
2018-Feb-12 04:37N 43°32' W 003°46'111.6
2018-Feb-12 04:30N 43°34' W 003°47'510.0
2018-Feb-12 04:00N 43°38' W 003°49'  
Track history (hours):
 
Tides and Currents Weather Stations Pressure Air Temp Water Temp Dewpoint Dewpoint Depression Visibility Wind Speed Wind Dir Waves Ship Positions

Neptune Aegli

Last reported at 2018-Feb-21 07:00 UTC. Time now 2018-Feb-21 07:30 UTC.
Position N 49°28' E 000°12'.

Length 158 m; draft 5.7 m.

Type: Cargo ship. MMSI: 215170000.

Date/timePositionNaut miles runAvg speedWind from/ knotsBaromVisibWave heightAir tempDewpointWater temp
2018-Feb-21 07:00N 49°28' E 000°12'0 0.0
2018-Feb-21 06:30N 49°28' E 000°12'0 0.0
2018-Feb-21 06:00N 49°28' E 000°12'0 0.2
2018-Feb-21 05:30N 49°28' E 000°12'1 1.9
2018-Feb-21 05:00N 49°29' E 000°10'0 0.5
2018-Feb-21 04:30N 49°28' E 000°10'3 6.8
2018-Feb-21 04:00N 49°29' E 000°05'714.8
2018-Feb-21 03:30N 49°31' W 000°06'714.3
2018-Feb-21 03:00N 49°33' W 000°17'714.9
2018-Feb-21 02:30N 49°36' W 000°27'815.4
2018-Feb-21 02:00N 49°39' W 000°38'815.6
2018-Feb-21 01:30N 49°42' W 000°49'815.2
2018-Feb-21 01:01N 49°45' W 001°00'918.5
2018-Feb-21 00:30N 49°48' W 001°13'1020.9
2018-Feb-21 00:00N 49°52' W 001°29'1121.3
2018-Feb-20 23:30N 49°53' W 001°45'1122.1
2018-Feb-20 23:01N 49°53' W 002°02'1621.3
2018-Feb-20 22:14N 49°52' W 002°27'12918.7
2018-Feb-20 15:21N 48°51' W 005°22'2415.9
2018-Feb-20 13:50N 48°31' W 005°42'616.9
2018-Feb-20 13:27N 48°25' W 005°40'816.7
2018-Feb-20 13:00N 48°17' W 005°37'816.5
2018-Feb-20 12:30N 48°09' W 005°34'816.5
2018-Feb-20 12:00N 48°01' W 005°31'816.4
2018-Feb-20 11:30N 47°54' W 005°28'916.4
2018-Feb-20 10:59N 47°45' W 005°25'1116.6
2018-Feb-20 10:20N 47°35' W 005°21'24117.5
2018-Feb-19 20:32N 43°42' W 003°50'417.7
2018-Feb-19 20:19N 43°38' W 003°48'517.7
2018-Feb-19 20:00N 43°33' W 003°46'2 0.3
2018-Feb-19 12:31N 43°31' W 003°44'1 7.6
2018-Feb-19 12:25N 43°32' W 003°43'2 3.3
2018-Feb-19 11:44N 43°31' W 003°40'1 3.0
2018-Feb-19 11:15N 43°32' W 003°42'1 4.8
2018-Feb-19 11:00N 43°31' W 003°41'5 9.2
2018-Feb-19 10:31N 43°33' W 003°47'6 9.5
2018-Feb-19 09:50N 43°39' W 003°49'24412.3
2018-Feb-18 13:56N 47°33' W 005°32'917.3
2018-Feb-18 13:26N 47°41' W 005°36'717.3
2018-Feb-18 13:00N 47°48' W 005°39'917.7
2018-Feb-18 12:30N 47°57' W 005°43'1418.3
2018-Feb-18 11:43N 48°10' W 005°50'22514.9
2018-Feb-17 20:40N 51°54' W 006°14'213.4
2018-Feb-17 20:30N 51°57' W 006°15'713.5
2018-Feb-17 20:00N 52°03' W 006°16'713.6
2018-Feb-17 19:30N 52°10' W 006°16'611.5
2018-Feb-17 19:00N 52°16' W 006°19'1 1.6
2018-Feb-17 18:29N 52°15' W 006°20'0 0.0
2018-Feb-17 17:59N 52°15' W 006°20'0 0.0
2018-Feb-17 17:29N 52°15' W 006°20'0 0.0
2018-Feb-17 16:56N 52°15' W 006°20'0 0.0
2018-Feb-17 16:29N 52°15' W 006°20'0 0.0
2018-Feb-17 15:59N 52°15' W 006°20'0 0.0
2018-Feb-17 15:29N 52°15' W 006°20'0 0.5
2018-Feb-17 15:00N 52°16' W 006°20'1 2.0
2018-Feb-17 14:30N 52°15' W 006°19'4 8.5
2018-Feb-17 14:00N 52°12' W 006°16'917.1
2018-Feb-17 13:30N 52°03' W 006°15'918.1
2018-Feb-17 13:00N 51°54' W 006°10'2915.7
2018-Feb-17 11:11N 51°36' W 005°35'319.0
2018-Feb-17 11:00N 51°35' W 005°30'1019.3
2018-Feb-17 10:30N 51°33' W 005°15'1020.2
2018-Feb-17 10:00N 51°30' W 004°59'1120.1
2018-Feb-17 09:29N 51°28' W 004°42'3419.5
2018-Feb-17 07:46N 51°22' W 003°49'518.3
2018-Feb-17 07:30N 51°22' W 003°42'1517.0
2018-Feb-17 06:37N 51°21' W 003°18'216.2
2018-Feb-17 06:30N 51°21' W 003°15'712.6
2018-Feb-17 05:59N 51°23' W 003°05'714.6
2018-Feb-17 05:31N 51°27' W 002°56'815.0
2018-Feb-17 05:00N 51°30' W 002°45'1 1.6
2018-Feb-17 04:30N 51°30' W 002°43'0 0.7
2018-Feb-17 03:59N 51°30' W 002°43'0 0.0
2018-Feb-17 03:29N 51°30' W 002°43'0 0.0
2018-Feb-17 02:59N 51°30' W 002°43'0 0.0
2018-Feb-17 02:29N 51°30' W 002°43'0 0.0
2018-Feb-17 01:59N 51°30' W 002°43'0 0.0
2018-Feb-17 01:29N 51°30' W 002°43'0 0.0
2018-Feb-17 00:59N 51°30' W 002°43'0 0.0
2018-Feb-17 00:29N 51°30' W 002°43'0 0.0
2018-Feb-16 23:59N 51°30' W 002°43'0 0.0
2018-Feb-16 23:29N 51°30' W 002°43'0 0.0
2018-Feb-16 22:59N 51°30' W 002°43'0 0.0
2018-Feb-16 22:29N 51°30' W 002°43'0 0.0
2018-Feb-16 21:59N 51°30' W 002°43'0 0.0
2018-Feb-16 21:29N 51°30' W 002°43'0 0.0
2018-Feb-16 20:59N 51°30' W 002°43'0 0.0
2018-Feb-16 20:29N 51°30' W 002°43'0 0.0
2018-Feb-16 19:59N 51°30' W 002°43'0 0.0
2018-Feb-16 19:29N 51°30' W 002°43'0 0.0
2018-Feb-16 18:59N 51°30' W 002°43'0 0.0
2018-Feb-16 18:29N 51°30' W 002°43'0 0.0
2018-Feb-16 18:00N 51°30' W 002°43'0 0.7
2018-Feb-16 17:29N 51°30' W 002°43'0 0.4
2018-Feb-16 17:00N 51°30' W 002°44'1 1.9
2018-Feb-16 16:30N 51°30' W 002°45'713.5
2018-Feb-16 16:01N 51°28' W 002°55'713.3
2018-Feb-16 15:30N 51°24' W 003°04'41 8.1
2018-Feb-16 10:23N 51°17' W 004°09'4 7.3
2018-Feb-16 09:54N 51°16' W 004°15'3 7.4
2018-Feb-16 09:30N 51°15' W 004°19'4 7.2
2018-Feb-16 09:00N 51°12' W 004°23'4 7.8
2018-Feb-16 08:30N 51°10' W 004°28'4 8.5
2018-Feb-16 08:00N 51°07' W 004°33'4 9.0
2018-Feb-16 07:30N 51°04' W 004°38'5 9.5
2018-Feb-16 07:00N 51°00' W 004°43'510.0
2018-Feb-16 06:30N 50°57' W 004°49'612.3
2018-Feb-16 06:01N 50°53' W 004°56'714.8
2018-Feb-16 05:30N 50°48' W 005°05'715.0
2018-Feb-16 05:01N 50°43' W 005°14'715.0
2018-Feb-16 04:31N 50°38' W 005°22'714.7
2018-Feb-16 04:01N 50°33' W 005°31'714.8
2018-Feb-16 03:30N 50°28' W 005°40'714.7
2018-Feb-16 03:00N 50°23' W 005°48'2810.0
2018-Feb-16 00:12N 49°58' W 005°30'1413.4
2018-Feb-15 23:11N 49°56' W 005°09'513.8
2018-Feb-15 22:50N 49°57' W 005°02'513.6
2018-Feb-15 22:30N 49°59' W 004°55'713.4
2018-Feb-15 22:00N 50°00' W 004°45'713.1
2018-Feb-15 21:29N 50°02' W 004°35'712.9
2018-Feb-15 20:58N 50°04' W 004°25'612.7
2018-Feb-15 20:28N 50°05' W 004°15'612.3
2018-Feb-15 20:00N 50°07' W 004°07'711.9
2018-Feb-15 19:27N 50°08' W 003°56'611.9
2018-Feb-15 18:58N 50°09' W 003°48'511.2
2018-Feb-15 18:30N 50°11' W 003°40'611.2
2018-Feb-15 18:00N 50°12' W 003°32'611.7
2018-Feb-15 17:30N 50°14' W 003°23'611.9
2018-Feb-15 17:00N 50°16' W 003°14'612.3
2018-Feb-15 16:30N 50°18' W 003°05'712.9
2018-Feb-15 16:00N 50°20' W 002°55'713.6
2018-Feb-15 15:30N 50°22' W 002°45'714.3
2018-Feb-15 15:00N 50°24' W 002°35'815.6
2018-Feb-15 14:30N 50°27' W 002°23'1316.3
2018-Feb-15 13:44N 50°31' W 002°04'416.7
2018-Feb-15 13:30N 50°32' W 001°59'816.0
2018-Feb-15 13:00N 50°35' W 001°47'714.9
2018-Feb-15 12:30N 50°39' W 001°37'816.6
2018-Feb-15 12:00N 50°44' W 001°27'713.3
2018-Feb-15 11:30N 50°48' W 001°18'510.9
2018-Feb-15 11:00N 50°52' W 001°23'3 5.3
2018-Feb-15 10:30N 50°54' W 001°26'0 0.4
2018-Feb-15 09:57N 50°54' W 001°26'0 0.0
2018-Feb-15 09:26N 50°54' W 001°26'0 0.0
2018-Feb-15 09:00N 50°54' W 001°26'0 0.0
2018-Feb-15 08:30N 50°54' W 001°26'0 0.0
2018-Feb-15 08:00N 50°54' W 001°26'0 0.0
2018-Feb-15 07:27N 50°54' W 001°26'0 0.0
2018-Feb-15 07:00N 50°54' W 001°26'0 0.0
2018-Feb-15 06:18N 50°54' W 001°26'0 0.0
2018-Feb-15 05:57N 50°54' W 001°26'0 0.0
2018-Feb-15 05:30N 50°54' W 001°26'0 0.0
2018-Feb-15 05:00N 50°54' W 001°26'0 0.0
2018-Feb-15 04:30N 50°54' W 001°26'0 0.0
2018-Feb-15 03:48N 50°54' W 001°26'0 0.0
2018-Feb-15 03:18N 50°54' W 001°26'0 0.0
2018-Feb-15 03:00N 50°54' W 001°26'0 0.0
2018-Feb-15 02:24N 50°54' W 001°26'0 0.0
2018-Feb-15 01:51N 50°54' W 001°26'0 0.0
2018-Feb-15 01:24N 50°54' W 001°26'0 0.0
2018-Feb-15 00:51N 50°54' W 001°26'0 0.0
2018-Feb-15 00:24N 50°54' W 001°26'0 0.0
2018-Feb-14 23:54N 50°54' W 001°26'0 0.0
2018-Feb-14 23:27N 50°54' W 001°26'1 1.3
2018-Feb-14 23:00N 50°54' W 001°25'5 9.9
2018-Feb-14 22:30N 50°50' W 001°19'4 8.5
2018-Feb-14 22:00N 50°46' W 001°17'611.8
2018-Feb-14 21:31N 50°46' W 001°07'815.9
2018-Feb-14 21:00N 50°39' W 000°60'611.6
2018-Feb-14 20:31N 50°34' W 000°55'3614.7
2018-Feb-14 18:04N 50°03' W 000°27'114.3
2018-Feb-14 18:00N 50°02' W 000°26'714.3
2018-Feb-14 17:29N 49°56' W 000°20'714.2
2018-Feb-14 17:00N 49°50' W 000°16'714.3
2018-Feb-14 16:30N 49°44' W 000°10'714.5
2018-Feb-14 16:00N 49°37' W 000°05'714.8
2018-Feb-14 15:31N 49°31' E 000°01'510.7
2018-Feb-14 15:00N 49°28' E 000°08'2 3.1
2018-Feb-14 14:29N 49°29' E 000°10'0 0.0
2018-Feb-14 13:59N 49°29' E 000°10'1 1.9
2018-Feb-14 13:27N 49°28' E 000°12'0 0.0
2018-Feb-14 12:57N 49°28' E 000°12'0 0.0
2018-Feb-14 12:28N 49°28' E 000°12'0 0.0
2018-Feb-14 11:57N 49°28' E 000°12'0 0.0
2018-Feb-14 11:28N 49°28' E 000°12'0 0.0
2018-Feb-14 10:55N 49°28' E 000°12'0 0.0
2018-Feb-14 10:28N 49°28' E 000°12'0 0.0
2018-Feb-14 09:57N 49°28' E 000°12'0 0.0
2018-Feb-14 09:28N 49°28' E 000°12'0 0.0
2018-Feb-14 08:57N 49°28' E 000°12'0 0.0
2018-Feb-14 08:27N 49°28' E 000°12'0 0.0
2018-Feb-14 07:57N 49°28' E 000°12'0 0.0
2018-Feb-14 07:28N 49°28' E 000°12'0 0.0
2018-Feb-14 06:58N 49°28' E 000°12'0 0.0
2018-Feb-14 06:28N 49°28' E 000°12'0 0.0
2018-Feb-14 05:57N 49°28' E 000°12'0 0.0
2018-Feb-14 05:28N 49°28' E 000°12'0 0.0
2018-Feb-14 04:58N 49°28' E 000°12'0 0.0
2018-Feb-14 04:27N 49°28' E 000°12'0 0.0
2018-Feb-14 03:57N 49°28' E 000°12'1 1.3
2018-Feb-14 03:30N 49°29' E 000°11'0 0.9
2018-Feb-14 03:00N 49°29' E 000°10'0 0.0
2018-Feb-14 02:30N 49°29' E 000°10'3 5.5
2018-Feb-14 02:00N 49°29' E 000°06'815.9
2018-Feb-14 01:30N 49°31' W 000°06'612.0
2018-Feb-14 01:00N 49°33' W 000°14'714.1
2018-Feb-14 00:30N 49°36' W 000°24'713.1
2018-Feb-14 00:00N 49°38' W 000°34'713.1
2018-Feb-13 23:30N 49°40' W 000°43'612.9
2018-Feb-13 23:00N 49°43' W 000°53'612.9
2018-Feb-13 22:30N 49°45' W 001°02'713.5
2018-Feb-13 22:01N 49°48' W 001°11'714.1
2018-Feb-13 21:30N 49°50' W 001°22'714.8
2018-Feb-13 21:00N 49°52' W 001°33'815.6
2018-Feb-13 20:31N 49°53' W 001°45'816.2
2018-Feb-13 20:00N 49°54' W 001°57'816.5
2018-Feb-13 19:30N 49°54' W 002°10'14314.4
2018-Feb-13 09:35N 48°49' W 005°26'615.5
2018-Feb-13 09:13N 48°46' W 005°33'516.2
2018-Feb-13 08:56N 48°42' W 005°37'1614.9
2018-Feb-13 07:51N 48°26' W 005°41'614.9
2018-Feb-13 07:26N 48°20' W 005°38'714.6
2018-Feb-13 06:59N 48°14' W 005°36'714.7
2018-Feb-13 06:30N 48°07' W 005°33'715.0
2018-Feb-13 06:00N 47°60' W 005°30'815.3
2018-Feb-13 05:28N 47°52' W 005°26'815.3
2018-Feb-13 04:58N 47°45' W 005°23'25517.2
2018-Feb-12 14:10N 43°38' W 003°49'316.4
2018-Feb-12 14:00N 43°36' W 003°47'8 0.9
2018-Feb-12 05:06N 43°28' W 003°46'5 9.6
2018-Feb-12 04:37N 43°32' W 003°46'111.6
2018-Feb-12 04:30N 43°34' W 003°47'510.0
2018-Feb-12 04:00N 43°38' W 003°49'  

Dump ship's entire track history